Home   Weather   USA   Staunton   Past weeks
Flag for USA

Past Weather in Staunton, Virginia, USA — Yesterday and Last 2 Weeks

Currently: 54 °F. Sunny. (Weather station: Eagles Nest Airport, USA). See more current weather

Past Weather in Staunton — Graph

°F

Staunton Temperature Yesterday

Maximum temperature yesterday: 77 °F (at 3:35 pm)
Minimum temperature yesterday: 62 °F (at 6:15 am)
Average temperature yesterday: 69 °F

High & Low Weather Summary for the Past Weeks

 TemperatureHumidityPressure
High90 °F (May 22, 4:15 pm)100% (May 14, 6:55 am)30.11 "Hg (May 14, 6:55 am)
Low52 °F (May 29, 6:15 am)39% (May 22, 4:15 pm)29.72 "Hg (May 15, 4:55 pm)
Average66 °F83%29.93 "Hg
* Reported May 14 6:15 am — May 29 6:35 am, Staunton. Weather by CustomWeather, © 2024

Note: Actual official high and low records may vary slightly from our data, if they occured in-between our weather recording intervals... More about our weather records

Staunton Weather History for the Previous 24 Hours

Scroll right to see more
 ConditionsComfort  
Time TempWeatherWind HumidityBarometerVisibility
6:35 am
Wed, May 29
52 °FSunny.No wind99%30.00 "Hg10 mi
6:15 am52 °FSunny.No wind99%30.00 "Hg10 mi
5:55 am52 °FSunny.No wind99%30.00 "Hg10 mi
5:35 am53 °FClear.No wind97%30.00 "Hg10 mi
5:15 am53 °FClear.5 mph97%29.99 "Hg10 mi
3:55 am55 °FClear.7 mph85%29.98 "Hg10 mi
3:15 am55 °FClear.5 mph86%29.98 "Hg10 mi
2:55 am55 °FClear.3 mph85%29.99 "Hg10 mi
2:35 am55 °FClear.3 mph86%29.99 "Hg10 mi
2:15 am55 °FClear.5 mph86%29.99 "Hg10 mi
1:15 am58 °FClear.No wind78%30.00 "Hg10 mi
12:55 am57 °FClear.No wind82%30.00 "Hg10 mi
12:35 am58 °FClear.No wind78%30.00 "Hg10 mi
12:15 am58 °FClear.No wind76%30.01 "Hg10 mi
11:55 pm
Tue, May 28
62 °FClear.No wind66%30.00 "Hg10 mi
11:35 pm63 °FClear.No wind64%30.00 "Hg10 mi
11:15 pm63 °FClear.3 mph60%30.00 "Hg10 mi
10:55 pm64 °FClear.3 mph59%29.99 "Hg10 mi
10:35 pm64 °FClear.No wind59%29.98 "Hg10 mi
10:15 pm66 °FPassing clouds.No wind55%29.98 "Hg10 mi
9:15 pm69 °FPassing clouds.3 mph47%29.95 "Hg10 mi
8:55 pm69 °FPassing clouds.6 mph47%29.95 "Hg10 mi
8:35 pm70 °FPassing clouds.6 mph46%29.95 "Hg10 mi
8:15 pm72 °FBroken clouds.5 mph45%29.94 "Hg10 mi
7:55 pm73 °FPartly sunny.No wind43%29.94 "Hg10 mi
7:35 pm74 °FScattered clouds.No wind43%29.93 "Hg10 mi
6:55 pm75 °FSunny.6 mph43%29.91 "Hg10 mi
6:35 pm76 °FScattered clouds.No wind46%29.91 "Hg10 mi
6:15 pm76 °FBroken clouds.3 mph48%29.90 "Hg10 mi
5:55 pm74 °FMostly cloudy.3 mph49%29.90 "Hg10 mi
5:35 pm75 °FPartly sunny.7 mph47%29.91 "Hg10 mi
5:15 pm75 °FBroken clouds.5 mph42%29.91 "Hg10 mi
4:35 pm76 °FMostly cloudy.9 mph42%29.91 "Hg10 mi
4:15 pm76 °FBroken clouds.8 mph42%29.91 "Hg10 mi
3:35 pm77 °FScattered clouds.9 mph44%29.91 "Hg10 mi
2:55 pm75 °FBroken clouds.7 mph44%29.93 "Hg10 mi
2:15 pm76 °FPartly sunny.5 mph43%29.92 "Hg10 mi
1:55 pm76 °FScattered clouds.7 mph45%29.92 "Hg10 mi
1:15 pm76 °FPartly sunny.6 mph40%29.92 "Hg10 mi
12:55 pm76 °FScattered clouds.8 mph42%29.92 "Hg10 mi
12:15 pm74 °FScattered clouds.6 mph45%29.93 "Hg10 mi
11:55 am74 °FBroken clouds.6 mph48%29.93 "Hg10 mi
11:35 am72 °FMild.3 mph51%29.93 "Hg10 mi
10:15 am71 °FScattered clouds.7 mph55%29.92 "Hg10 mi
9:35 am70 °FSunny.6 mph58%29.92 "Hg10 mi
8:35 am68 °FSunny.6 mph62%29.93 "Hg10 mi
8:15 am67 °FSunny.6 mph62%29.93 "Hg10 mi
7:55 am66 °FSunny.3 mph65%29.92 "Hg10 mi
7:35 am64 °FSunny.6 mph71%29.92 "Hg10 mi
7:15 am63 °FSunny.No wind74%29.92 "Hg10 mi
Weather by CustomWeather, © 2024

See weather overview